createdAt,value
2023-01-05T00:01:51.018Z,98803.70
2023-01-05T00:04:18.852Z,98802.28
2023-01-05T00:06:46.218Z,98809.62
2023-01-05T00:09:15.610Z,98812.89
2023-01-05T00:12:01.689Z,98813.99
2023-01-05T00:14:49.313Z,98816.57
2023-01-05T00:17:38.639Z,98817.19
2023-01-05T00:20:31.284Z,98807.73
2023-01-05T00:22:59.963Z,98803.71
2023-01-05T00:25:30.232Z,98799.64
2023-01-05T00:27:59.392Z,98793.01
2023-01-05T00:30:29.175Z,98795.00
2023-01-05T00:32:56.731Z,98791.92
2023-01-05T00:35:24.865Z,98792.55
2023-01-05T00:37:52.897Z,98785.65
2023-01-05T00:40:22.223Z,98781.41
2023-01-05T00:42:49.562Z,98768.23
2023-01-05T00:45:18.695Z,98757.80
2023-01-05T00:47:46.232Z,98750.46
2023-01-05T00:50:15.506Z,98744.61
2023-01-05T00:52:48.386Z,98749.53
2023-01-05T00:55:16.397Z,98753.14
2023-01-05T00:57:46.012Z,98759.16
2023-01-05T01:00:15.990Z,98759.46
2023-01-05T01:02:44.207Z,98759.60
2023-01-05T01:05:11.812Z,98763.64
2023-01-05T01:07:39.224Z,98757.20
2023-01-05T01:10:07.351Z,98751.75
2023-01-05T01:12:35.560Z,98745.35
2023-01-05T01:15:06.460Z,98747.75
2023-01-05T01:17:34.084Z,98747.73
2023-01-05T01:20:02.206Z,98751.71
2023-01-05T01:22:29.945Z,98753.11
2023-01-05T01:24:58.623Z,98749.50
2023-01-05T01:27:26.748Z,98747.29
2023-01-05T01:29:54.836Z,98741.68
2023-01-05T01:32:24.146Z,98747.95
2023-01-05T01:34:54.936Z,98745.42
2023-01-05T01:37:26.086Z,98740.50
2023-01-05T01:39:56.060Z,98739.77
2023-01-05T01:42:25.936Z,98735.66
2023-01-05T01:45:17.070Z,98738.34
2023-01-05T01:47:51.166Z,98729.70
2023-01-05T01:50:24.520Z,98732.46
2023-01-05T01:52:58.720Z,98729.63
2023-01-05T01:55:28.782Z,98731.98
2023-01-05T01:57:58.894Z,98734.21
2023-01-05T02:00:26.460Z,98728.23
2023-01-05T02:02:56.217Z,98729.68
2023-01-05T02:05:29.534Z,98726.32
2023-01-05T02:07:59.921Z,98716.16
2023-01-05T02:10:56.325Z,98710.08
2023-01-05T02:13:31.196Z,98717.80
2023-01-05T02:16:02.935Z,98712.98
2023-01-05T02:18:36.405Z,98714.59
2023-01-05T02:21:16.977Z,98716.73
2023-01-05T02:24:02.351Z,98712.59
2023-01-05T02:26:30.481Z,98706.99
2023-01-05T02:29:13.886Z,98705.11
2023-01-05T02:31:57.319Z,98705.48
2023-01-05T02:34:40.918Z,98699.96
2023-01-05T02:37:15.476Z,98692.27
2023-01-05T02:39:51.023Z,98692.89
2023-01-05T02:42:27.124Z,98689.27
2023-01-05T02:44:55.124Z,98684.41
2023-01-05T02:47:25.147Z,98687.97
2023-01-05T02:50:05.692Z,98688.98
2023-01-05T02:52:39.416Z,98688.95
2023-01-05T02:55:10.765Z,98685.85
2023-01-05T02:57:47.184Z,98683.45
2023-01-05T03:00:21.879Z,98683.20
2023-01-05T03:02:53.731Z,98679.12
2023-01-05T03:05:41.895Z,98675.71
2023-01-05T03:08:23.262Z,98668.43
2023-01-05T03:11:18.443Z,98679.02
2023-01-05T03:13:49.796Z,98684.99
2023-01-05T03:16:22.517Z,98681.42
2023-01-05T03:19:11.220Z,98682.31
2023-01-05T03:21:57.976Z,98666.98
2023-01-05T03:24:44.571Z,98660.65
2023-01-05T03:27:32.777Z,98661.75
2023-01-05T03:30:19.448Z,98650.64
2023-01-05T03:33:09.215Z,98658.50
2023-01-05T03:35:41.571Z,98651.63
2023-01-05T03:38:21.164Z,98652.05
2023-01-05T03:40:53.717Z,98654.69
2023-01-05T03:43:21.492Z,98657.35
2023-01-05T03:45:54.479Z,98667.09
2023-01-05T03:48:25.031Z,98667.38
2023-01-05T03:50:52.732Z,98666.23
2023-01-05T03:53:21.165Z,98665.64
2023-01-05T03:55:49.552Z,98669.50
2023-01-05T03:58:17.396Z,98666.60
2023-01-05T04:00:47.591Z,98671.83
2023-01-05T04:03:15.471Z,98672.97
2023-01-05T04:05:44.119Z,98673.48
2023-01-05T04:08:12.337Z,98673.05
2023-01-05T04:10:39.816Z,98670.48
2023-01-05T04:13:07.943Z,98667.41
2023-01-05T04:15:36.016Z,98663.60
2023-01-05T04:18:04.418Z,98658.80
2023-01-05T04:20:33.343Z,98658.34
2023-01-05T04:23:01.629Z,98655.10
2023-01-05T04:25:30.704Z,98661.07
2023-01-05T04:28:04.777Z,98658.68
2023-01-05T04:30:34.086Z,98663.98
2023-01-05T04:33:02.430Z,98657.50
2023-01-05T04:35:31.448Z,98663.12
2023-01-05T04:37:58.862Z,98661.35
2023-01-05T04:40:28.015Z,98652.83
2023-01-05T04:42:56.495Z,98654.67
2023-01-05T04:45:26.720Z,98652.00
2023-01-05T04:47:57.070Z,98647.77
2023-01-05T04:50:26.785Z,98648.52
2023-01-05T04:52:54.981Z,98648.55
2023-01-05T04:55:24.580Z,98649.34
2023-01-05T04:57:52.048Z,98647.45
2023-01-05T05:00:20.551Z,98648.67
2023-01-05T05:02:50.758Z,98640.48
2023-01-05T05:05:18.207Z,98643.27
2023-01-05T05:07:50.818Z,98645.38
2023-01-05T05:10:18.881Z,98646.27
2023-01-05T05:12:47.471Z,98644.71
2023-01-05T05:15:14.882Z,98639.47
2023-01-05T05:17:45.702Z,98635.49
2023-01-05T05:20:16.659Z,98637.06
2023-01-05T05:22:44.461Z,98637.70
2023-01-05T05:25:13.914Z,98631.21
2023-01-05T05:27:43.951Z,98638.02
2023-01-05T05:30:12.606Z,98638.17
2023-01-05T05:32:44.138Z,98635.88
2023-01-05T05:35:12.329Z,98641.64
2023-01-05T05:37:40.197Z,98641.48
2023-01-05T05:40:07.906Z,98644.41
2023-01-05T05:42:35.802Z,98649.13
2023-01-05T05:45:03.972Z,98640.74
2023-01-05T05:47:31.661Z,98637.86
2023-01-05T05:49:58.971Z,98640.99
2023-01-05T05:52:26.366Z,98636.85
2023-01-05T05:54:54.507Z,98644.29
2023-01-05T05:57:23.694Z,98645.44
2023-01-05T05:59:51.800Z,98639.36
2023-01-05T06:02:19.625Z,98638.25
2023-01-05T06:04:48.763Z,98637.42
2023-01-05T06:07:16.222Z,98643.30
2023-01-05T06:09:45.992Z,98640.31
2023-01-05T06:12:15.457Z,98637.02
2023-01-05T06:14:44.994Z,98644.34
2023-01-05T06:17:13.012Z,98640.48
2023-01-05T06:19:42.063Z,98640.83
2023-01-05T06:22:09.379Z,98642.13
2023-01-05T06:24:37.386Z,98640.92
2023-01-05T06:27:04.781Z,98641.88
2023-01-05T06:29:32.182Z,98642.30
2023-01-05T06:32:00.823Z,98636.64
2023-01-05T06:34:28.373Z,98636.81
2023-01-05T06:37:01.904Z,98650.73
2023-01-05T06:39:29.739Z,98640.63
2023-01-05T06:41:57.167Z,98652.94
2023-01-05T06:44:26.725Z,98647.64
2023-01-05T06:46:54.200Z,98653.03
2023-01-05T06:49:21.611Z,98644.59
2023-01-05T06:51:50.750Z,98649.60
2023-01-05T06:54:19.227Z,98663.16
2023-01-05T06:56:47.112Z,98658.21
2023-01-05T06:59:14.757Z,98670.70
2023-01-05T07:01:42.280Z,98667.21
2023-01-05T07:04:09.980Z,98687.52
2023-01-05T07:06:37.662Z,98687.95
2023-01-05T07:09:05.161Z,98694.51
2023-01-05T07:11:32.627Z,98692.77
2023-01-05T07:14:02.524Z,98712.78
2023-01-05T07:16:30.101Z,98718.98
2023-01-05T07:18:57.607Z,98723.09
2023-01-05T07:21:25.154Z,98725.51
2023-01-05T07:23:52.544Z,98733.27
2023-01-05T07:26:19.938Z,98741.77
2023-01-05T07:28:47.375Z,98746.44
2023-01-05T07:31:15.325Z,98741.88
2023-01-05T07:33:42.845Z,98755.27
2023-01-05T07:36:10.336Z,98752.55
2023-01-05T07:38:39.192Z,98751.44
2023-01-05T07:41:07.974Z,98754.85
2023-01-05T07:43:35.511Z,98759.98
2023-01-05T07:46:04.154Z,98757.93
2023-01-05T07:48:33.488Z,98765.50
2023-01-05T07:51:02.020Z,98761.11
2023-01-05T07:53:30.505Z,98765.91
2023-01-05T07:56:00.666Z,98770.83
2023-01-05T07:58:30.071Z,98763.20
2023-01-05T08:01:04.576Z,98772.29
2023-01-05T08:03:32.253Z,98779.60
2023-01-05T08:06:03.612Z,98777.32
2023-01-05T08:08:31.069Z,98775.41
2023-01-05T08:11:00.975Z,98787.25
2023-01-05T08:13:47.965Z,98794.89
2023-01-05T08:16:16.911Z,98797.30
2023-01-05T08:18:45.197Z,98803.81
2023-01-05T08:21:12.971Z,98807.13
2023-01-05T08:23:40.564Z,98810.30
2023-01-05T08:26:12.186Z,98809.84
2023-01-05T08:28:40.575Z,98804.23
2023-01-05T08:31:10.574Z,98814.23
2023-01-05T08:33:38.128Z,98812.73
2023-01-05T08:36:08.043Z,98808.12
2023-01-05T08:38:35.842Z,98814.31
2023-01-05T08:41:04.444Z,98819.52
2023-01-05T08:43:32.997Z,98815.89
2023-01-05T08:46:00.671Z,98818.44
2023-01-05T08:48:29.301Z,98815.65
2023-01-05T08:51:03.360Z,98813.78
2023-01-05T08:53:57.220Z,98821.60
2023-01-05T08:56:33.123Z,98823.00
2023-01-05T08:59:05.570Z,98817.65
2023-01-05T09:01:36.951Z,98826.73
2023-01-05T09:04:04.954Z,98829.79
2023-01-05T09:06:32.511Z,98825.98
2023-01-05T09:09:00.151Z,98833.02
2023-01-05T09:11:29.586Z,98834.55
2023-01-05T09:14:00.283Z,98838.02
2023-01-05T09:16:57.302Z,98838.53
2023-01-05T09:19:17.201Z,98839.30
2023-01-05T09:21:45.091Z,98823.23
2023-01-05T09:24:12.988Z,98837.52
2023-01-05T09:26:42.565Z,98829.00
2023-01-05T09:29:12.092Z,98829.80
2023-01-05T09:31:43.608Z,98823.86
2023-01-05T09:34:11.428Z,98821.81
2023-01-05T09:36:39.287Z,98824.70
2023-01-05T09:39:08.071Z,98819.59
2023-01-05T09:41:47.061Z,98818.63
2023-01-05T09:44:28.456Z,98823.88
2023-01-05T09:47:00.471Z,98831.51
2023-01-05T09:49:29.304Z,98833.84
2023-01-05T09:52:01.751Z,98826.48
2023-01-05T09:54:53.812Z,98824.34
2023-01-05T09:57:26.774Z,98828.73
2023-01-05T10:00:01.080Z,98825.34
2023-01-05T10:02:46.980Z,98834.40
2023-01-05T10:05:15.511Z,98828.77
2023-01-05T10:07:53.416Z,98823.11
2023-01-05T10:10:28.107Z,98828.59
2023-01-05T10:13:02.741Z,98823.58
2023-01-05T10:15:33.267Z,98834.71
2023-01-05T10:18:08.608Z,98834.09
2023-01-05T10:21:08.518Z,98828.20
2023-01-05T10:23:47.855Z,98829.45
2023-01-05T10:26:51.351Z,98829.65
2023-01-05T10:29:26.899Z,98827.98
2023-01-05T10:32:14.439Z,98825.73
2023-01-05T10:34:45.587Z,98830.28
2023-01-05T10:37:34.270Z,98823.48
2023-01-05T10:40:09.174Z,98813.27
2023-01-05T10:42:45.405Z,98826.52
2023-01-05T10:45:15.403Z,98827.58
2023-01-05T10:47:45.857Z,98825.62
2023-01-05T10:50:19.714Z,98834.24
2023-01-05T10:52:47.698Z,98825.25
2023-01-05T10:55:17.992Z,98828.95
2023-01-05T10:57:46.360Z,98825.98
2023-01-05T11:00:20.355Z,98820.70
2023-01-05T11:02:50.606Z,98817.27
2023-01-05T11:05:23.288Z,98822.93
2023-01-05T11:07:52.858Z,98822.66
2023-01-05T11:10:25.959Z,98816.84
2023-01-05T11:13:01.935Z,98814.92
2023-01-05T11:15:32.003Z,98812.91
2023-01-05T11:18:00.545Z,98814.41
2023-01-05T11:20:29.232Z,98812.30
2023-01-05T11:22:58.780Z,98815.75
2023-01-05T11:25:30.527Z,98809.30
2023-01-05T11:28:07.059Z,98816.42
2023-01-05T11:30:37.571Z,98808.33
2023-01-05T11:35:50.556Z,98809.48
2023-01-05T11:38:26.553Z,98812.27
2023-01-05T11:40:55.993Z,98805.44
2023-01-05T11:43:25.823Z,98808.39
2023-01-05T11:45:58.922Z,98812.20
2023-01-05T11:48:28.536Z,98815.48
2023-01-05T11:50:57.312Z,98821.09
2023-01-05T11:53:35.778Z,98819.36
2023-01-05T11:56:03.291Z,98815.70
2023-01-05T11:58:51.571Z,98812.63
2023-01-05T12:01:28.330Z,98806.81
2023-01-05T12:04:14.375Z,98818.26
2023-01-05T12:07:00.577Z,98812.82
2023-01-05T12:09:36.111Z,98810.09
2023-01-05T12:12:07.186Z,98820.96
2023-01-05T12:14:44.456Z,98809.80
2023-01-05T12:17:16.524Z,98817.65
2023-01-05T12:19:43.936Z,98816.38
2023-01-05T12:22:30.630Z,98812.72
2023-01-05T12:24:58.222Z,98823.04
2023-01-05T12:27:28.340Z,98813.48
2023-01-05T12:36:06.341Z,98812.38
2023-01-05T12:38:48.904Z,98814.98
2023-01-05T12:41:21.232Z,98812.40
2023-01-05T12:44:27.870Z,98811.69
2023-01-05T12:47:00.894Z,98813.59
2023-01-05T12:49:37.829Z,98814.27
2023-01-05T12:52:29.056Z,98799.71
2023-01-05T12:55:01.843Z,98804.27
2023-01-05T12:57:34.463Z,98799.05
2023-01-05T13:00:02.343Z,98800.01
2023-01-05T13:02:30.703Z,98800.45
2023-01-05T13:05:19.574Z,98792.39
2023-01-05T13:07:51.211Z,98807.40
2023-01-05T13:10:25.503Z,98802.91
2023-01-05T13:12:56.762Z,98803.36
2023-01-05T13:15:28.194Z,98802.30
2023-01-05T13:17:56.911Z,98803.23
2023-01-05T13:20:31.038Z,98802.11
2023-01-05T13:23:01.973Z,98811.16
2023-01-05T13:25:33.053Z,98799.06
2023-01-05T13:30:45.133Z,98814.05
2023-01-05T13:33:18.533Z,98809.88
2023-01-05T13:36:12.188Z,98811.02
2023-01-05T13:38:40.033Z,98814.25
2023-01-05T13:41:18.682Z,98820.35
2023-01-05T13:44:04.408Z,98819.16
2023-01-05T13:46:50.394Z,98832.73
2023-01-05T13:49:35.879Z,98835.74
2023-01-05T13:52:18.732Z,98824.45
2023-01-05T13:55:00.857Z,98830.25
2023-01-05T13:57:36.390Z,98845.14
2023-01-05T14:00:10.220Z,98846.20
2023-01-05T14:02:43.380Z,98863.20
2023-01-05T14:05:24.132Z,98852.49
2023-01-05T14:07:54.073Z,98859.93
2023-01-05T14:10:25.047Z,98871.64
2023-01-05T14:12:56.382Z,98873.62
2023-01-05T14:15:43.105Z,98883.34
2023-01-05T14:18:13.307Z,98897.70
2023-01-05T14:20:46.224Z,98907.95
2023-01-05T14:23:22.834Z,98919.55
2023-01-05T14:25:55.173Z,98918.85
2023-01-05T14:28:40.588Z,98939.14
2023-01-05T14:31:08.054Z,98938.95
2023-01-05T14:34:07.050Z,98947.54
2023-01-05T14:36:36.624Z,98946.35
2023-01-05T14:39:20.158Z,98963.76
2023-01-05T14:42:05.867Z,98974.05
2023-01-05T14:44:35.780Z,98986.23
2023-01-05T14:47:04.806Z,98990.58
2023-01-05T14:49:36.619Z,98997.94
2023-01-05T14:52:06.854Z,99003.41
2023-01-05T14:58:14.417Z,99011.27
2023-01-05T15:00:47.949Z,99023.46
2023-01-05T15:03:20.081Z,99030.56
2023-01-05T15:05:53.481Z,99034.23
2023-01-05T15:08:32.519Z,99034.94
2023-01-05T15:11:18.079Z,99031.32
2023-01-05T15:14:11.083Z,99046.59
2023-01-05T15:16:48.591Z,99047.48
2023-01-05T15:19:23.275Z,99051.98
2023-01-05T15:22:08.079Z,99059.35
2023-01-05T15:25:01.503Z,99068.96
2023-01-05T15:27:40.916Z,99064.85
2023-01-05T15:30:25.202Z,99077.61
2023-01-05T15:33:04.326Z,99068.89
2023-01-05T15:35:43.207Z,99087.33
2023-01-05T15:38:20.878Z,99084.97
2023-01-05T15:40:49.952Z,99090.40
2023-01-05T15:43:18.790Z,99093.16
2023-01-05T15:45:49.815Z,99099.75
2023-01-05T15:48:29.012Z,99105.06
2023-01-05T15:50:58.426Z,99106.98
2023-01-05T15:53:32.754Z,99114.81
2023-01-05T15:56:00.960Z,99121.76
2023-01-05T15:58:30.109Z,99122.59
2023-01-05T16:01:10.292Z,99132.35
2023-01-05T16:03:39.187Z,99144.33
2023-01-05T16:06:10.515Z,99143.20
2023-01-05T16:08:49.792Z,99140.61
2023-01-05T16:11:36.164Z,99145.27
2023-01-05T16:14:11.018Z,99151.91
2023-01-05T16:16:57.412Z,99159.40
2023-01-05T16:19:32.774Z,99168.20
2023-01-05T16:22:04.304Z,99177.02
2023-01-05T16:24:55.841Z,99189.11
2023-01-05T16:27:23.915Z,99203.94
2023-01-05T16:29:51.668Z,99219.86
2023-01-05T16:32:33.054Z,99222.52
2023-01-05T16:35:27.065Z,99230.97
2023-01-05T16:38:02.307Z,99241.40
2023-01-05T16:40:30.996Z,99254.02
2023-01-05T16:42:58.852Z,99269.17
2023-01-05T16:45:29.505Z,99279.08
2023-01-05T16:47:57.174Z,99282.56
2023-01-05T16:50:37.712Z,99288.81
2023-01-05T16:53:14.174Z,99299.73
2023-01-05T16:55:42.826Z,99304.45
2023-01-05T16:58:29.104Z,99308.27
2023-01-05T17:01:23.954Z,99314.06
2023-01-05T17:03:52.296Z,99322.89
2023-01-05T17:06:22.639Z,99331.33
2023-01-05T17:08:50.899Z,99339.83
2023-01-05T17:11:18.354Z,99353.34
2023-01-05T17:13:52.160Z,99368.27
2023-01-05T17:16:21.999Z,99371.42
2023-01-05T17:18:51.441Z,99368.08
2023-01-05T17:21:21.865Z,99376.71
2023-01-05T17:23:52.797Z,99381.41
2023-01-05T17:26:26.611Z,99387.48
2023-01-05T17:28:56.799Z,99398.75
2023-01-05T17:31:25.415Z,99418.00
2023-01-05T17:33:55.393Z,99421.52
2023-01-05T17:36:26.456Z,99431.02
2023-01-05T17:38:54.749Z,99423.17
2023-01-05T17:41:22.480Z,99438.70
2023-01-05T17:43:50.775Z,99448.61
2023-01-05T17:46:32.024Z,99464.02
2023-01-05T17:49:00.506Z,99472.32
2023-01-05T17:51:30.224Z,99488.80
2023-01-05T17:53:59.818Z,99492.55
2023-01-05T17:56:28.436Z,99495.85
2023-01-05T17:58:57.090Z,99503.13
2023-01-05T18:01:25.626Z,99504.45
2023-01-05T18:03:53.127Z,99525.15
2023-01-05T18:06:22.649Z,99526.89
2023-01-05T18:08:52.392Z,99537.14
2023-01-05T18:11:20.751Z,99546.52
2023-01-05T18:13:48.754Z,99540.41
2023-01-05T18:16:17.437Z,99549.48
2023-01-05T18:18:45.397Z,99557.41
2023-01-05T18:21:13.107Z,99560.66
2023-01-05T18:23:41.300Z,99569.10
2023-01-05T18:26:09.818Z,99577.67
2023-01-05T18:28:38.205Z,99578.30
2023-01-05T18:31:10.759Z,99589.32
2023-01-05T18:33:39.829Z,99591.20
2023-01-05T18:36:11.712Z,99603.13
2023-01-05T18:38:41.643Z,99613.23
2023-01-05T18:41:09.978Z,99621.48
2023-01-05T18:43:37.993Z,99629.31
2023-01-05T18:46:06.676Z,99640.20
2023-01-05T18:48:35.161Z,99649.63
2023-01-05T18:51:08.181Z,99659.77
2023-01-05T18:53:39.826Z,99674.56
2023-01-05T18:56:09.040Z,99677.55
2023-01-05T18:58:37.808Z,99683.36
2023-01-05T19:01:09.318Z,99696.25
2023-01-05T19:03:37.506Z,99700.05
2023-01-05T19:06:08.606Z,99706.87
2023-01-05T19:08:37.715Z,99711.84
2023-01-05T19:11:12.436Z,99719.28
2023-01-05T19:13:40.970Z,99723.48
2023-01-05T19:16:09.278Z,99736.38
2023-01-05T19:18:37.792Z,99748.87
2023-01-05T19:21:05.983Z,99750.80
2023-01-05T19:23:35.346Z,99754.41
2023-01-05T19:26:04.019Z,99759.23
2023-01-05T19:28:35.465Z,99761.22
2023-01-05T19:31:08.542Z,99773.92
2023-01-05T19:33:37.431Z,99780.38
2023-01-05T19:36:07.231Z,99792.57
2023-01-05T19:38:35.561Z,99797.42
2023-01-05T19:41:08.764Z,99807.67
2023-01-05T19:43:40.262Z,99818.20
2023-01-05T19:46:12.877Z,99828.50
2023-01-05T19:48:45.793Z,99834.76
2023-01-05T19:51:14.835Z,99831.84
2023-01-05T19:53:43.210Z,99840.79
2023-01-05T19:56:16.609Z,99851.77
2023-01-05T19:58:44.267Z,99861.38
2023-01-05T20:01:13.720Z,99870.86
2023-01-05T20:03:49.282Z,99873.87
2023-01-05T20:06:22.321Z,99878.48
2023-01-05T20:08:55.290Z,99891.54
2023-01-05T20:11:44.965Z,99897.50
2023-01-05T20:14:13.157Z,99899.51
2023-01-05T20:16:42.537Z,99904.72
2023-01-05T20:19:11.771Z,99907.61
2023-01-05T20:21:43.551Z,99915.39
2023-01-05T20:24:14.366Z,99929.74
2023-01-05T20:26:46.533Z,99935.70
2023-01-05T20:29:15.850Z,99943.96
2023-01-05T20:31:45.421Z,99945.41
2023-01-05T20:34:17.707Z,99954.05
2023-01-05T20:36:46.249Z,99957.98
2023-01-05T20:39:18.493Z,99953.89
2023-01-05T20:41:48.508Z,99959.71
2023-01-05T20:44:18.623Z,99955.23
2023-01-05T20:46:47.300Z,99961.36
2023-01-05T20:49:15.960Z,99961.21
2023-01-05T20:51:46.213Z,99968.47
2023-01-05T20:54:39.961Z,99970.03
2023-01-05T20:57:09.035Z,99980.53
2023-01-05T20:59:41.546Z,99994.31
2023-01-05T21:02:24.221Z,100005.79
2023-01-05T21:04:53.502Z,100011.06
2023-01-05T21:07:22.034Z,100016.98
2023-01-05T21:09:51.228Z,100023.02
2023-01-05T21:12:20.406Z,100032.55
2023-01-05T21:14:49.106Z,100040.48
2023-01-05T21:17:18.410Z,100044.20
2023-01-05T21:19:45.879Z,100055.02
2023-01-05T21:22:14.734Z,100059.35
2023-01-05T21:24:45.162Z,100066.02
2023-01-05T21:27:14.618Z,100074.88
2023-01-05T21:29:43.847Z,100075.78
2023-01-05T21:32:12.363Z,100085.00
2023-01-05T21:34:40.218Z,100094.43
2023-01-05T21:37:07.708Z,100103.72
2023-01-05T21:39:36.400Z,100110.86
2023-01-05T21:42:22.664Z,100110.90
2023-01-05T21:44:50.372Z,100119.58
2023-01-05T21:47:18.318Z,100123.91
2023-01-05T21:49:46.628Z,100132.77
2023-01-05T21:52:32.935Z,100139.95
2023-01-05T21:55:45.634Z,100137.54
2023-01-05T21:58:13.075Z,100140.83
2023-01-05T22:00:40.591Z,100146.80
2023-01-05T22:03:11.451Z,100158.08
2023-01-05T22:05:39.233Z,100161.20
2023-01-05T22:08:06.846Z,100170.42
2023-01-05T22:10:35.565Z,100178.76
2023-01-05T22:13:05.793Z,100187.60
2023-01-05T22:15:33.272Z,100193.54
2023-01-05T22:18:00.783Z,100199.92
2023-01-05T22:20:29.409Z,100207.01
2023-01-05T22:22:56.874Z,100212.73
2023-01-05T22:25:25.448Z,100216.27
2023-01-05T22:27:53.720Z,100221.83
2023-01-05T22:30:21.255Z,100229.87
2023-01-05T22:32:49.570Z,100238.37
2023-01-05T22:35:17.983Z,100247.06
2023-01-05T22:37:46.747Z,100242.79
2023-01-05T22:40:14.478Z,100248.57
2023-01-05T22:42:43.107Z,100250.91
2023-01-05T22:45:11.430Z,100258.60
2023-01-05T22:47:39.079Z,100265.32
2023-01-05T22:50:09.420Z,100269.33
2023-01-05T22:52:37.385Z,100274.50
2023-01-05T22:55:06.317Z,100283.45
2023-01-05T22:57:34.828Z,100288.61
2023-01-05T23:00:03.246Z,100306.09
2023-01-05T23:02:30.736Z,100311.55
2023-01-05T23:04:58.219Z,100313.52
2023-01-05T23:07:25.704Z,100314.88
2023-01-05T23:09:54.999Z,100314.19
2023-01-05T23:12:23.507Z,100321.67
2023-01-05T23:14:51.006Z,100327.20
2023-01-05T23:17:18.448Z,100339.86
2023-01-05T23:19:45.911Z,100343.69
2023-01-05T23:22:14.989Z,100346.23
2023-01-05T23:24:42.817Z,100344.72
2023-01-05T23:27:11.169Z,100344.20
2023-01-05T23:29:38.630Z,100353.06
2023-01-05T23:32:07.477Z,100347.34
2023-01-05T23:34:37.603Z,100348.48
2023-01-05T23:37:06.131Z,100357.07
2023-01-05T23:39:33.728Z,100372.42
2023-01-05T23:42:01.320Z,100374.11
2023-01-05T23:44:28.706Z,100377.44
2023-01-05T23:46:56.354Z,100380.80
2023-01-05T23:49:23.872Z,100384.49
2023-01-05T23:51:52.016Z,100385.21
2023-01-05T23:54:20.499Z,100390.34
2023-01-05T23:56:48.815Z,100396.27
2023-01-05T23:59:17.202Z,100399.41
